Odem, TX (78370)

2:29 AM CDT on September 25, 2016 (GMT -0500)
San Patricio County Living | | Change Station

Elev 75 ft 27.99 °N, 97.56 °W | Updated 15 seconds ago

Clear
Clear
79.7 °F
Feels Like 85 °F
N
0.4
Wind Variable Wind from SSE
Gusts 2.5 mph

Today
High -- | Low -- °F
--% Chance of Precip.
Yesterday
High -- | Low -- °F
Precip. -- in
Pressure 29.90 in
Visibility 10.0 miles
Clouds Clear
Heat Index 85 °F
Dew Point 77 °F
Humidity 90%
Rainfall 0.00 in
Snow Depth Not available.
7:20 AM 7:22 PM
Waning Crescent, 30% visible
METAR KRBO 250715Z AUTO 13003KT 10SM CLR 26/24 A2990 RMK AO2 LTG DSNT E AND W T02600237
Pressure 29.90 in
Visibility 10.0 miles
Clouds Clear
Heat Index 85 °F
Dew Point 77 °F
Humidity 90%
Rainfall 0.00 in
Snow Depth Not available.
7:20 AM 7:22 PM
Waning Crescent, 30% visible
METAR KRBO 250715Z AUTO 13003KT 10SM CLR 26/24 A2990 RMK AO2 LTG DSNT E AND W T02600237

10-Day Weather Forecast

Almanac

Astronomy

Sep. 25, 2016 Rise Set
Actual Time
Civil Twilight
Nautical Twilight
Astronomical Twilight
Moon
Length of Visible Light
Length of Day
Tomorrow will be .
, % of the Moon is Illuminated

Today's Extremes

State Highs State Lows

Community

WunderPhotos

Upload Photos

1,941,554 photos uploaded!

WunderBlog® & News

Nearby

Air Quality

  Air Quality AQ Index Pollutant
Not available.

Snow Depth

Station Depth Elevation

Earthquake Activity

City Distance Mag. Time & Date
Minimum magnitude displayed is 2.5.

Coastal Water Temperatures

Place Temperature

Stations

Nearby Weather Stations

Station Location Temp. Windchill Dew Point Humidity Wind Precip. Elev Updated Type
                   

Watches & Warnings

There are currently no watches in effect.